Time;durP1;ratioP1;P1;durP2;ratioP2;P2;SDS_P1;SDS_P2;PMS_P1;PMS_P2;Temp;Humidity;BMP_temperature;BMP_pressure;BME280_temperature;BME280_humidity;BME280_pressure;Samples;Min_cycle;Max_cycle;Signal;HPM_P1;HPM_P2
2023/09/07 00:04:15;;;;;;;4.34;3.00;;;;;;;22.23;56.97;99457.84;7226689;40;20242;31
2023/09/07 00:09:38;;;;;;;5.87;3.40;;;;;;;22.16;57.37;99462.63;7265939;39;20345;31
2023/09/07 00:15:16;;;;;;;4.70;2.93;;;;;;;22.17;56.08;99454.13;7313992;39;20276;31
2023/09/07 00:20:50;;;;;;;8.03;3.07;;;;;;;22.14;56.84;99443.63;7360796;39;20282;31
2023/09/07 00:31:29;;;;;;;3.90;3.12;;;;;;;22.06;57.20;99434.91;7360564;39;20332;31
2023/09/07 00:36:50;;;;;;;6.15;3.60;;;;;;;22.08;56.38;99444.56;7321491;39;20244;31
2023/09/07 00:42:11;;;;;;;4.70;3.20;;;;;;;22.06;57.17;99443.97;7325633;39;20328;31
2023/09/07 00:47:47;;;;;;;4.25;3.55;;;;;;;21.97;57.29;99435.25;7364194;39;20255;31
2023/09/07 00:53:24;;;;;;;5.35;3.12;;;;;;;22.01;57.21;99439.19;7359070;39;20544;31
2023/09/07 00:59:02;;;;;;;3.50;3.15;;;;;;;21.94;57.03;99437.59;7323145;39;20798;31
2023/09/07 01:04:38;;;;;;;5.93;3.40;;;;;;;21.88;57.04;99433.88;7270709;39;20781;31
2023/09/07 01:10:13;;;;;;;6.60;3.60;;;;;;;21.84;57.65;99429.06;7258277;39;20705;31
2023/09/07 01:15:47;;;;;;;4.57;3.33;;;;;;;21.78;57.26;99428.09;7269536;40;20230;31
2023/09/07 01:21:22;;;;;;;5.80;3.80;;;;;;;21.71;57.50;99432.84;7275709;40;20871;31
2023/09/07 01:26:58;;;;;;;5.43;3.60;;;;;;;21.65;57.94;99435.66;7246749;40;20802;31
2023/09/07 01:32:18;;;;;;;5.60;3.30;;;;;;;21.62;58.42;99428.75;7217747;40;20861;31
2023/09/07 01:37:39;;;;;;;3.80;3.40;;;;;;;21.51;58.64;99424.03;7300898;39;20244;31
2023/09/07 01:43:20;;;;;;;7.53;3.95;;;;;;;21.41;58.88;99430.06;7333050;39;20262;31
2023/09/07 01:48:42;;;;;;;5.30;4.03;;;;;;;21.41;58.50;99432.81;7356867;39;20258;31
2023/09/07 01:54:01;;;;;;;4.03;3.62;;;;;;;21.34;59.53;99433.97;7352444;39;20272;31
2023/09/07 01:59:37;;;;;;;4.40;3.40;;;;;;;21.29;59.50;99423.69;7338091;39;20447;31
2023/09/07 02:05:12;;;;;;;7.05;4.00;;;;;;;21.27;58.60;99425.00;7336966;39;20259;31
2023/09/07 02:10:45;;;;;;;6.10;3.50;;;;;;;21.16;60.04;99423.84;7279228;40;20240;31
2023/09/07 02:16:19;;;;;;;5.45;3.30;;;;;;;20.91;60.46;99420.34;7311428;39;20254;31
2023/09/07 02:21:54;;;;;;;4.05;3.17;;;;;;;20.87;60.56;99413.63;7286936;39;20244;31
2023/09/07 02:27:28;;;;;;;3.40;3.10;;;;;;;20.87;60.35;99425.44;7276976;40;20289;31
2023/09/07 02:33:04;;;;;;;4.62;3.20;;;;;;;20.78;60.89;99424.06;7176704;40;20242;31
2023/09/07 02:38:39;;;;;;;4.57;3.40;;;;;;;20.71;61.66;99419.72;7257928;40;20253;31
2023/09/07 02:44:15;;;;;;;4.00;3.40;;;;;;;20.63;61.94;99427.16;7292221;39;20973;31
2023/09/07 02:49:51;;;;;;;3.95;3.30;;;;;;;20.62;61.85;99422.72;7322056;39;20388;31
2023/09/07 02:55:11;;;;;;;5.25;3.75;;;;;;;20.61;61.78;99422.97;7307671;39;20342;31
2023/09/07 03:00:31;;;;;;;5.70;3.50;;;;;;;20.51;60.97;99419.91;7277796;40;20260;31
2023/09/07 03:06:08;;;;;;;4.60;3.50;;;;;;;20.39;62.72;99416.22;7321857;39;20250;31
2023/09/07 03:11:43;;;;;;;4.03;3.58;;;;;;;20.33;62.09;99407.00;7266948;40;20328;31
2023/09/07 03:17:18;;;;;;;5.60;3.70;;;;;;;20.23;62.67;99414.84;7238338;40;20242;31
2023/09/07 03:22:52;;;;;;;5.65;3.55;;;;;;;20.10;63.85;99418.53;7251982;40;20246;31
2023/09/07 03:28:26;;;;;;;7.68;4.57;;;;;;;19.84;64.45;99418.72;7290776;39;21066;31
2023/09/07 03:33:47;;;;;;;6.87;3.63;;;;;;;19.58;64.45;99427.09;7292619;39;20240;31
2023/09/07 03:39:24;;;;;;;6.03;3.83;;;;;;;19.40;65.94;99422.31;7236857;40;20800;31
2023/09/07 03:44:59;;;;;;;4.80;3.53;;;;;;;19.29;65.08;99418.38;7205634;40;20326;31
2023/09/07 03:50:32;;;;;;;5.00;3.60;;;;;;;19.22;65.64;99420.28;7198378;40;20355;31
2023/09/07 03:56:06;;;;;;;5.70;3.67;;;;;;;19.14;66.18;99420.53;7250734;40;20262;31
2023/09/07 04:01:41;;;;;;;4.70;3.70;;;;;;;18.96;66.41;99425.84;7248946;40;20730;31
2023/09/07 04:06:59;;;;;;;4.80;3.55;;;;;;;18.90;66.17;99424.84;7287296;39;20770;31
2023/09/07 04:17:40;;;;;;;4.20;3.80;;;;;;;18.69;68.50;99424.28;7313055;39;20272;31
2023/09/07 04:23:16;;;;;;;5.75;3.90;;;;;;;18.64;68.25;99426.78;7307721;39;20387;31
2023/09/07 04:28:48;;;;;;;5.70;3.97;;;;;;;18.62;67.95;99427.00;7313600;39;20269;31
2023/09/07 04:34:25;;;;;;;4.16;3.52;;;;;;;18.61;68.69;99428.03;7258562;40;20390;31
2023/09/07 04:39:47;;;;;;;5.10;3.80;;;;;;;18.50;67.75;99431.41;7256599;40;20241;31
2023/09/07 04:45:21;;;;;;;4.70;3.97;;;;;;;18.50;68.11;99436.03;7241500;40;20261;31
2023/09/07 04:50:55;;;;;;;6.13;3.80;;;;;;;18.48;67.65;99430.75;7240211;40;20242;31
2023/09/07 04:56:30;;;;;;;6.70;3.90;;;;;;;18.52;67.91;99434.75;7218209;40;20260;31
2023/09/07 05:01:50;;;;;;;11.70;8.75;;;;;;;18.57;66.78;99442.31;7027851;40;21181;31
2023/09/07 05:07:26;;;;;;;4.20;3.80;;;;;;;18.50;68.94;99434.12;7224536;40;20428;31
2023/09/07 05:12:46;;;;;;;5.47;3.80;;;;;;;18.52;68.39;99428.47;7274332;39;20394;31
2023/09/07 05:18:07;;;;;;;5.77;3.77;;;;;;;18.52;68.45;99440.19;7294115;40;20241;31
2023/09/07 05:23:56;;;;;;;5.45;3.90;;;;;;;18.52;69.13;99429.28;7311032;39;20256;31
2023/09/07 05:34:21;;;;;;;7.20;3.70;;;;;;;18.66;67.63;99438.34;7265143;40;21285;31
2023/09/07 05:45:03;;;;;;;5.20;3.60;;;;;;;18.78;68.44;99445.66;7307546;39;20281;31
2023/09/07 05:55:27;;;;;;;4.55;4.10;;;;;;;19.08;67.44;99456.09;7347555;39;20435;31
2023/09/07 06:06:05;;;;;;;5.20;3.83;;;;;;;19.17;67.42;99455.66;7408150;39;21029;31
2023/09/07 06:16:31;;;;;;;6.27;4.30;;;;;;;19.37;68.02;99469.22;7382800;39;20263;31
2023/09/07 06:22:07;;;;;;;4.27;3.87;;;;;;;19.45;67.71;99463.53;7361813;39;20270;31
2023/09/07 06:27:26;;;;;;;8.53;4.00;;;;;;;19.65;67.16;99463.47;7327107;39;20373;31
2023/09/07 06:32:48;;;;;;;5.73;3.70;;;;;;;19.82;66.66;99466.53;7336801;39;20278;31
2023/09/07 06:38:24;;;;;;;6.10;4.40;;;;;;;19.96;65.83;99465.38;7273954;40;20268;31
2023/09/07 06:44:03;;;;;;;5.70;4.00;;;;;;;20.11;66.25;99471.38;7238032;40;20256;31
2023/09/07 06:49:23;;;;;;;4.67;4.20;;;;;;;20.26;66.12;99482.84;7278885;39;20253;31
2023/09/07 06:54:59;;;;;;;4.30;3.80;;;;;;;20.40;65.13;99478.16;7289461;39;20340;31
2023/09/07 07:00:37;;;;;;;6.70;4.20;;;;;;;20.56;66.54;99483.91;7297912;39;20806;31
2023/09/07 07:06:14;;;;;;;5.60;3.90;;;;;;;20.69;65.29;99488.41;7282582;39;20245;31
2023/09/07 07:11:50;;;;;;;5.18;3.78;;;;;;;20.84;64.61;99490.81;7260365;40;20816;31
2023/09/07 07:17:29;;;;;;;4.60;3.62;;;;;;;21.02;63.69;99488.09;7313708;39;20308;31
2023/09/07 07:22:53;;;;;;;5.15;3.92;;;;;;;21.15;63.85;99490.72;7278169;40;20237;31
2023/09/07 07:28:26;;;;;;;5.95;3.70;;;;;;;21.25;63.93;99485.53;7274026;40;20824;31
2023/09/07 07:34:02;;;;;;;5.85;3.90;;;;;;;21.30;62.79;99487.59;7242030;39;20249;31
2023/09/07 07:39:44;;;;;;;5.70;4.47;;;;;;;21.40;63.23;99493.41;7300361;40;20260;31
2023/09/07 07:50:25;;;;;;;7.43;4.37;;;;;;;21.69;62.97;99484.38;7185814;40;20270;31
2023/09/07 07:55:48;;;;;;;5.27;4.00;;;;;;;21.85;62.94;99488.41;7220852;40;20446;31
2023/09/07 08:06:27;;;;;;;7.93;4.03;;;;;;;22.14;62.77;99493.06;7235931;40;20279;31
2023/09/07 08:11:47;;;;;;;5.35;4.45;;;;;;;22.26;62.50;99491.19;7303460;39;20321;31
2023/09/07 08:17:23;;;;;;;5.20;4.10;;;;;;;22.43;61.17;99489.41;7292290;39;20240;31
2023/09/07 08:22:58;;;;;;;5.03;4.20;;;;;;;22.52;61.64;99491.81;7278361;40;20257;31
2023/09/07 08:28:18;;;;;;;5.30;4.37;;;;;;;22.61;61.61;99484.91;7245073;40;20264;31
2023/09/07 08:33:54;;;;;;;5.85;4.12;;;;;;;22.76;60.95;99491.66;7253175;40;20257;31
2023/09/07 08:39:29;;;;;;;4.70;4.25;;;;;;;22.96;60.25;99488.53;7257674;40;20252;31
2023/09/07 08:45:06;;;;;;;6.40;4.85;;;;;;;23.10;59.94;99491.88;7295041;39;20278;31
2023/09/07 08:50:40;;;;;;;6.68;4.78;;;;;;;23.19;60.91;99494.03;7253486;40;20245;31
2023/09/07 08:56:17;;;;;;;5.84;4.74;;;;;;;23.32;59.18;99485.50;7288906;39;20395;31
2023/09/07 09:06:58;;;;;;;6.75;4.65;;;;;;;23.70;58.69;99490.47;7277508;40;21021;31
2023/09/07 09:12:39;;;;;;;6.85;4.72;;;;;;;23.86;58.02;99496.28;7334294;40;20289;31
2023/09/07 09:18:14;;;;;;;6.30;5.03;;;;;;;24.00;58.03;99476.44;7294442;39;20334;31
2023/09/07 09:23:49;;;;;;;5.68;4.62;;;;;;;24.17;59.16;99477.38;7297004;39;20245;31
2023/09/07 09:29:27;;;;;;;8.05;4.57;;;;;;;24.42;56.97;99459.59;7254213;39;20339;31
2023/09/07 09:35:05;;;;;;;5.05;4.25;;;;;;;24.60;57.69;99464.88;7266015;40;20245;31
2023/09/07 09:40:39;;;;;;;6.05;4.30;;;;;;;24.77;57.53;99468.44;7247827;40;20438;31
2023/09/07 09:46:15;;;;;;;9.90;4.70;;;;;;;25.00;57.09;99471.06;7234933;40;20287;31
2023/09/07 09:51:54;;;;;;;7.35;4.22;;;;;;;25.22;56.21;99468.31;7202166;40;20462;31
2023/09/07 09:57:29;;;;;;;8.10;4.50;;;;;;;25.35;55.23;99462.44;7235726;40;20265;31
2023/09/07 10:03:05;;;;;;;4.97;4.47;;;;;;;25.54;54.66;99468.47;7206000;40;20552;31
2023/09/07 10:08:41;;;;;;;6.00;4.45;;;;;;;25.70;55.21;99461.22;7228888;40;20706;31
2023/09/07 10:14:16;;;;;;;4.70;4.10;;;;;;;25.92;54.97;99451.81;7218517;40;20801;31
2023/09/07 10:30:00;;;;;;;6.57;4.40;;;;;;;26.48;52.81;99441.31;7368384;39;21040;31
2023/09/07 10:35:24;;;;;;;4.35;3.85;;;;;;;26.68;51.90;99437.87;7372483;39;20259;31
2023/09/07 10:40:59;;;;;;;6.65;4.45;;;;;;;26.80;51.28;99438.50;7359972;39;20450;31
2023/09/07 10:46:35;;;;;;;4.44;4.00;;;;;;;26.98;52.13;99440.88;7321539;39;20256;31
2023/09/07 10:52:10;;;;;;;5.30;3.92;;;;;;;27.16;52.36;99450.66;7217552;40;20359;31
2023/09/07 10:57:30;;;;;;;6.50;4.05;;;;;;;27.32;51.23;99433.03;7260203;40;20262;31
2023/09/07 11:08:43;;;;;;;4.65;4.07;;;;;;;27.51;51.88;99423.19;7215265;40;20424;31
2023/09/07 11:14:18;;;;;;;5.92;4.10;;;;;;;27.71;50.72;99420.47;7294822;39;20240;31
2023/09/07 11:19:54;;;;;;;5.20;3.90;;;;;;;27.83;49.95;99408.28;7320095;39;20703;31
2023/09/07 11:25:29;;;;;;;4.00;3.60;;;;;;;27.94;49.45;99409.97;7310166;39;20238;31
2023/09/07 11:31:04;;;;;;;4.76;4.00;;;;;;;28.06;48.81;99405.00;7256763;40;20256;31
2023/09/07 11:36:40;;;;;;;4.64;4.08;;;;;;;28.19;48.68;99416.41;7235360;40;20277;31
2023/09/07 11:42:01;;;;;;;4.00;3.60;;;;;;;28.31;48.78;99413.38;7205860;40;20265;31
2023/09/07 11:47:21;;;;;;;5.43;3.70;;;;;;;28.41;48.69;99401.44;7263652;39;20447;31
2023/09/07 11:52:58;;;;;;;4.87;3.42;;;;;;;28.53;48.97;99404.75;7270375;39;20264;31
2023/09/07 11:58:22;;;;;;;4.90;3.45;;;;;;;28.72;47.63;99410.59;7240509;40;20328;31
2023/09/07 12:03:56;;;;;;;3.90;3.50;;;;;;;28.85;48.45;99401.69;7223889;40;20255;31
2023/09/07 12:09:34;;;;;;;3.72;3.42;;;;;;;28.95;47.81;99390.59;7235115;40;20273;31
2023/09/07 12:20:14;;;;;;;5.10;3.60;;;;;;;29.16;46.61;99389.41;7225087;40;20468;31
2023/09/07 12:25:51;;;;;;;6.65;3.75;;;;;;;29.32;46.26;99385.47;7250313;40;20286;31
2023/09/07 12:36:40;;;;;;;;;;;;;;;;;;;;;
2023/09/07 12:42:03;;;;;;;8.23;3.85;;;;;;;29.49;45.30;99374.00;7127967;39;20233;31
2023/09/07 12:47:39;;;;;;;4.45;3.33;;;;;;;29.52;44.35;99368.72;7299231;39;20714;31
2023/09/07 12:53:00;;;;;;;4.18;3.50;;;;;;;29.76;44.24;99368.00;7220452;40;20335;31
2023/09/07 13:03:45;;;;;;;4.37;3.45;;;;;;;29.86;44.91;99359.59;7299088;39;20271;31
2023/09/07 13:09:24;;;;;;;10.00;3.60;;;;;;;29.89;43.93;99359.88;7276893;39;20720;31
2023/09/07 13:14:45;;;;;;;4.90;3.85;;;;;;;30.07;43.27;99361.13;7332243;39;20254;31
2023/09/07 13:20:24;;;;;;;4.72;3.42;;;;;;;29.98;44.54;99354.53;7320268;39;20771;31
2023/09/07 13:26:02;;;;;;;7.75;3.30;;;;;;;29.94;43.74;99353.44;7288502;40;20280;31
2023/09/07 13:36:42;;;;;;;5.65;3.05;;;;;;;30.02;43.77;99344.50;7285367;40;21343;31
2023/09/07 13:47:40;;;;;;;4.47;3.37;;;;;;;30.18;44.65;99334.91;7198508;39;20474;31
2023/09/07 13:58:42;;;;;;;4.40;3.50;;;;;;;30.22;43.38;99332.38;7166906;40;20541;31
2023/09/07 14:04:03;;;;;;;4.47;3.50;;;;;;;30.24;43.13;99325.38;7239865;40;20378;31
2023/09/07 14:09:39;;;;;;;3.45;2.90;;;;;;;30.23;41.83;99320.13;7257658;39;20657;31
2023/09/07 14:15:14;;;;;;;6.30;3.25;;;;;;;30.27;42.67;99310.09;7355526;39;20252;31
2023/09/07 14:20:49;;;;;;;4.10;3.33;;;;;;;30.24;43.12;99311.47;7273800;40;20245;31
2023/09/07 14:26:25;;;;;;;5.13;3.00;;;;;;;30.25;42.78;99310.38;7218822;40;20277;31
2023/09/07 14:31:45;;;;;;;4.72;2.90;;;;;;;30.30;42.96;99317.84;7153086;40;20237;31
2023/09/07 14:37:05;;;;;;;8.00;3.67;;;;;;;30.28;42.68;99320.91;7199090;40;20257;31
2023/09/07 14:42:41;;;;;;;4.87;3.25;;;;;;;30.21;43.37;99314.03;7270943;40;20240;31
2023/09/07 14:48:16;;;;;;;4.70;3.75;;;;;;;30.19;42.38;99310.72;7260863;39;20346;31
2023/09/07 14:53:36;;;;;;;5.22;2.90;;;;;;;30.15;42.80;99309.63;7306586;39;20468;31
2023/09/07 14:59:13;;;;;;;5.80;3.10;;;;;;;30.21;43.00;99303.72;7307911;39;20252;31
2023/09/07 15:04:49;;;;;;;5.05;3.30;;;;;;;30.14;43.29;99294.91;7266024;40;20257;31
2023/09/07 15:10:09;;;;;;;4.85;3.30;;;;;;;30.23;42.24;99295.94;7249006;40;20253;31
2023/09/07 15:15:47;;;;;;;6.20;4.35;;;;;;;30.22;41.96;99288.72;7290967;39;20532;31
2023/09/07 15:21:09;;;;;;;4.18;3.72;;;;;;;30.26;42.92;99288.94;7277154;40;20426;31
2023/09/07 15:26:55;;;;;;;5.25;3.50;;;;;;;30.13;42.12;99292.41;7280127;39;20809;31
2023/09/07 15:37:36;;;;;;;5.32;3.22;;;;;;;30.11;43.07;99287.13;7266325;40;20335;31
2023/09/07 15:48:17;;;;;;;6.10;3.20;;;;;;;30.12;44.62;99285.19;7316427;39;20259;31
2023/09/07 15:58:58;;;;;;;3.85;3.42;;;;;;;29.79;44.40;99289.63;7329993;39;20287;31
2023/09/07 16:09:21;;;;;;;3.90;3.20;;;;;;;29.52;45.14;99290.91;7355988;39;21291;31
2023/09/07 16:14:58;;;;;;;5.72;3.40;;;;;;;29.43;44.81;99283.47;7360361;39;20241;31
2023/09/07 16:20:18;;;;;;;6.77;3.30;;;;;;;29.31;45.66;99283.81;7326598;39;20248;31
2023/09/07 16:25:53;;;;;;;4.97;3.40;;;;;;;29.25;45.64;99284.09;7303588;39;20295;31
2023/09/07 16:31:30;;;;;;;4.37;3.20;;;;;;;29.15;46.57;99284.97;7237597;40;20267;31
2023/09/07 16:37:04;;;;;;;3.90;3.25;;;;;;;29.03;46.63;99290.06;7273830;39;20238;31
2023/09/07 16:42:40;;;;;;;3.50;3.10;;;;;;;28.94;46.89;99294.53;7287769;39;20239;31
2023/09/07 16:48:16;;;;;;;4.10;3.40;;;;;;;28.87;47.42;99291.25;7252214;39;20276;31
2023/09/07 16:53:51;;;;;;;4.60;3.05;;;;;;;28.79;48.24;99292.63;7236251;40;20345;31
2023/09/07 16:59:12;;;;;;;5.07;3.75;;;;;;;28.71;49.38;99297.94;7252165;40;20803;31
2023/09/07 17:04:48;;;;;;;4.43;3.40;;;;;;;28.60;48.38;99289.63;7299908;39;20251;31
2023/09/07 17:10:23;;;;;;;4.05;3.30;;;;;;;28.50;49.53;99289.66;7250710;40;20597;31
2023/09/07 17:21:03;;;;;;;3.70;3.28;;;;;;;28.28;52.07;99285.53;7298487;39;20855;31
2023/09/07 17:31:30;;;;;;;6.05;3.85;;;;;;;27.88;54.39;99289.97;7315390;39;20555;31
2023/09/07 17:42:24;;;;;;;4.50;3.80;;;;;;;27.44;55.23;99286.03;7357769;39;20446;31
2023/09/07 17:47:32;;;;;;;4.25;3.45;;;;;;;27.22;54.92;99300.94;7424471;39;20342;31
2023/09/07 17:52:53;;;;;;;3.85;3.50;;;;;;;26.99;54.58;99304.16;7416728;39;20250;31
2023/09/07 17:58:29;;;;;;;7.37;4.15;;;;;;;26.70;55.09;99302.91;7342429;39;21119;31
2023/09/07 18:04:04;;;;;;;4.25;3.78;;;;;;;26.48;54.87;99303.06;7306518;39;20244;31
2023/09/07 18:09:24;;;;;;;5.30;3.73;;;;;;;26.25;54.87;99308.97;7319146;39;20248;31
2023/09/07 18:14:57;;;;;;;4.12;3.67;;;;;;;25.96;55.58;99314.00;7334148;39;20258;31
2023/09/07 18:20:33;;;;;;;6.74;3.96;;;;;;;25.75;56.91;99321.28;7320408;39;20400;31
2023/09/07 18:25:54;;;;;;;6.54;4.00;;;;;;;25.55;57.15;99334.88;7299121;39;20729;31
2023/09/07 18:31:30;;;;;;;4.15;3.70;;;;;;;25.33;56.85;99334.03;7249520;40;20309;31
2023/09/07 18:37:05;;;;;;;4.70;3.65;;;;;;;25.30;56.63;99334.56;7207572;40;20513;31
2023/09/07 18:42:40;;;;;;;6.75;4.00;;;;;;;25.17;56.10;99326.69;7169031;40;20438;31
2023/09/07 18:53:46;;;;;;;6.15;4.00;;;;;;;24.90;57.35;99334.91;7185861;40;20922;31
2023/09/07 18:59:21;;;;;;;6.80;3.88;;;;;;;24.73;56.62;99337.69;7189081;40;20733;31
2023/09/07 19:10:02;;;;;;;6.32;3.80;;;;;;;24.50;57.85;99332.38;7257873;39;21188;31
2023/09/07 19:15:27;;;;;;;4.85;3.87;;;;;;;24.47;57.65;99331.00;7331968;39;20812;31
2023/09/07 19:21:04;;;;;;;5.30;4.37;;;;;;;24.29;57.21;99334.00;7361811;39;20266;31
2023/09/07 19:26:46;;;;;;;5.72;3.83;;;;;;;24.18;58.16;99332.19;7400941;39;20239;31
2023/09/07 19:32:20;;;;;;;6.15;4.12;;;;;;;24.10;57.73;99338.91;7352223;39;20247;31
2023/09/07 19:43:23;;;;;;;4.80;3.70;;;;;;;24.02;57.09;99338.50;7296309;40;20446;31
2023/09/07 19:49:13;;;;;;;;;;;;;;;;;;;;;
2023/09/07 19:54:38;;;;;;;7.68;4.18;;;;;;;24.07;57.69;99336.66;7196267;40;20716;31
2023/09/07 20:00:17;;;;;;;4.75;4.03;;;;;;;23.83;58.01;99337.91;6940103;40;20406;31
2023/09/07 20:05:38;;;;;;;4.87;4.15;;;;;;;23.66;59.48;99348.06;7290167;39;20245;31
2023/09/07 20:17:06;;;;;;;;;;;;;;;;;;;;;
2023/09/07 20:22:20;;;;;;;4.30;3.90;;;;;;;22.78;60.95;99345.72;7223568;40;20339;31
2023/09/07 20:28:00;;;;;;;6.25;4.20;;;;;;;22.48;62.80;99351.34;7216475;40;20309;31
2023/09/07 20:33:35;;;;;;;5.15;4.35;;;;;;;22.38;62.67;99360.19;7239180;40;20344;31
2023/09/07 20:39:03;;;;;;;5.15;4.20;;;;;;;22.40;62.57;99355.28;7217310;40;20466;31
2023/09/07 20:44:23;;;;;;;5.62;4.26;;;;;;;22.26;63.01;99362.09;7238278;40;20241;31
2023/09/07 20:50:00;;;;;;;5.78;4.14;;;;;;;21.99;63.96;99349.88;7231907;40;20241;31
2023/09/07 20:55:20;;;;;;;7.15;4.25;;;;;;;21.91;63.19;99350.19;7259259;39;20238;31
2023/09/07 21:01:02;;;;;;;6.63;4.27;;;;;;;21.77;64.59;99337.75;7272684;39;20471;31
2023/09/07 21:06:37;;;;;;;4.90;4.18;;;;;;;21.64;65.10;99343.44;7258195;40;20261;31
2023/09/07 21:12:05;;;;;;;;;;;;;;;;;;;;;
2023/09/07 21:17:30;;;;;;;7.12;4.47;;;;;;;21.45;65.36;99339.97;7181765;40;20250;31
2023/09/07 21:23:06;;;;;;;4.18;3.78;;;;;;;21.41;64.82;99339.56;7242288;39;20276;31
2023/09/07 21:28:26;;;;;;;5.95;4.28;;;;;;;21.78;62.61;99333.94;7267851;40;20258;31
2023/09/07 21:33:47;;;;;;;6.18;3.90;;;;;;;22.04;61.00;99336.28;7265589;39;20260;31
2023/09/07 21:44:30;;;;;;;4.88;4.16;;;;;;;22.07;60.80;99327.59;7314230;39;20267;31
2023/09/07 21:55:10;;;;;;;7.15;4.45;;;;;;;22.42;59.06;99328.41;7312549;39;21125;31
2023/09/07 22:00:49;;;;;;;5.05;3.90;;;;;;;22.43;59.17;99327.34;7359807;39;20299;31
2023/09/07 22:06:13;;;;;;;4.15;3.75;;;;;;;22.29;58.92;99314.09;7347691;39;20694;31
2023/09/07 22:11:49;;;;;;;6.35;4.20;;;;;;;22.12;59.63;99313.13;7341038;39;20420;31
2023/09/07 22:17:25;;;;;;;10.08;4.00;;;;;;;21.92;60.23;99314.31;7298633;39;20276;31
2023/09/07 22:27:52;;;;;;;4.20;3.80;;;;;;;22.14;59.87;99319.22;7256597;40;20585;31
2023/09/07 22:33:30;;;;;;;4.80;3.88;;;;;;;22.30;58.58;99308.34;7274904;39;20261;31
2023/09/07 22:38:52;;;;;;;14.77;5.03;;;;;;;22.40;57.93;99313.25;7241282;40;20273;31
2023/09/07 22:44:29;;;;;;;4.43;4.03;;;;;;;22.19;58.96;99317.44;7254737;40;20849;31
2023/09/07 22:55:09;;;;;;;5.00;4.50;;;;;;;21.61;61.29;99309.09;7270244;39;21019;31
2023/09/07 23:00:45;;;;;;;5.37;4.17;;;;;;;21.22;62.63;99312.44;7230105;40;20238;31
2023/09/07 23:06:26;;;;;;;7.18;4.37;;;;;;;21.00;63.94;99312.06;7255205;40;20311;31
2023/09/07 23:12:02;;;;;;;4.93;4.43;;;;;;;20.84;64.98;99310.81;7139555;40;20293;31
2023/09/07 23:17:22;;;;;;;4.45;4.05;;;;;;;20.88;63.34;99324.88;7137930;40;20345;31
2023/09/07 23:23:01;;;;;;;5.75;4.40;;;;;;;20.85;64.39;99319.84;7198428;40;20293;31
2023/09/07 23:28:37;;;;;;;5.57;4.82;;;;;;;20.81;64.66;99318.62;7256092;40;20313;31
2023/09/07 23:33:58;;;;;;;4.44;4.02;;;;;;;20.71;65.37;99330.16;7278847;40;20338;31
2023/09/07 23:39:34;;;;;;;6.43;4.30;;;;;;;20.61;65.06;99327.09;7239752;40;20351;31
2023/09/07 23:45:09;;;;;;;4.80;4.30;;;;;;;20.66;65.54;99328.09;7205827;40;20253;31
2023/09/07 23:50:30;;;;;;;5.47;4.93;;;;;;;20.38;65.85;99325.03;7219605;40;20257;31
2023/09/07 23:55:51;;;;;;;6.00;4.50;;;;;;;20.19;66.18;99328.75;7232464;40;20332;31
